Byron, California
Current Conditions -  °F | °C
As of 11:53 PM on Monday 20 Oct 2014 (Local Time) from KLVK Reporting Station
Clear Clear  
Wind Chill: 57°   Ceiling: Unl
Heat Index: 57°   Visibility: 10mi
Dew Point: 52°   Wind: 5mph
Humidity: 83%   Direction: 310°NW
Pressure: 30.06"   Gusts: NA
Location:  37.87°N, 121.64°W
Report Text: KLVK 210653Z AUTO 31004KT 10SM CLR 14/11 A3006 RMK AO2 SLP178 T01390111
Loading
Personal Weather Stations






























Interactive Weather Map
Tropical Storm Tracking
New forecast layout! Learn more

10-Day Weather Forecast

Advertisements
Track Severe Weather on mobile